Time;durP1;ratioP1;P1;durP2;ratioP2;P2;SDS_P1;SDS_P2;PMS_P1;PMS_P2;Temp;Humidity;BMP_temperature;BMP_pressure;BME280_temperature;BME280_humidity;BME280_pressure;Samples;Min_cycle;Max_cycle;Signal;HPM_P1;HPM_P2
2020/12/17 00:01:41;;;;;;;34.30;20.98;;;;;;;5.02;78.10;95478.38;4175131;28;20053;-68
2020/12/17 00:03:42;;;;;;;36.65;21.27;;;;;;;5.04;78.45;95479.13;4174425;28;20449;-69
2020/12/17 00:05:44;;;;;;;33.55;21.30;;;;;;;5.06;77.79;95482.44;4175256;28;20496;-68
2020/12/17 00:07:46;;;;;;;39.70;22.58;;;;;;;5.06;78.45;95486.81;4174284;28;20138;-70
2020/12/17 00:09:47;;;;;;;34.75;20.50;;;;;;;5.06;77.81;95482.44;4174122;28;20123;-69
2020/12/17 00:11:49;;;;;;;32.38;19.88;;;;;;;5.00;78.19;95484.63;4172700;28;20643;-70
2020/12/17 00:13:50;;;;;;;36.60;20.60;;;;;;;4.98;78.33;95476.94;4175663;28;20052;-69
2020/12/17 00:15:51;;;;;;;38.10;21.23;;;;;;;5.00;78.95;95487.22;4174711;28;20488;-69
2020/12/17 00:17:53;;;;;;;36.38;21.83;;;;;;;5.06;78.35;95486.81;4176216;28;20045;-69
2020/12/17 00:19:54;;;;;;;34.58;20.92;;;;;;;5.11;78.67;95485.53;4171448;28;20122;-78
2020/12/17 00:21:56;;;;;;;36.80;20.98;;;;;;;5.17;78.20;95484.28;4175373;28;20053;-78
2020/12/17 00:23:59;;;;;;;35.67;21.73;;;;;;;5.24;77.67;95493.31;4177596;28;20515;-78
2020/12/17 00:26:00;;;;;;;34.20;20.50;;;;;;;5.28;77.84;95483.53;4174205;28;20059;-70
2020/12/17 00:28:02;;;;;;;39.40;21.77;;;;;;;5.18;78.03;95485.94;4162469;28;20169;-69
2020/12/17 00:30:07;;;;;;;36.33;20.40;;;;;;;5.11;78.35;95488.13;4172019;28;20045;-69
2020/12/17 00:32:09;;;;;;;37.92;21.17;;;;;;;5.13;78.07;95488.03;4170212;28;20049;-70
2020/12/17 00:34:10;;;;;;;36.53;20.95;;;;;;;5.00;78.58;95492.41;4173148;28;20049;-69
2020/12/17 00:36:25;;;;;;;41.28;21.30;;;;;;;4.64;79.76;95491.38;4173467;28;20476;-70
2020/12/17 00:38:26;;;;;;;38.97;22.63;;;;;;;4.46;80.60;95491.69;4186571;28;20049;-71
2020/12/17 00:40:27;;;;;;;39.70;21.38;;;;;;;4.47;81.03;95498.56;4177069;28;20057;-71
2020/12/17 00:42:29;;;;;;;38.55;21.42;;;;;;;4.54;80.94;95492.94;4159603;28;20085;-76
2020/12/17 00:44:30;;;;;;;35.95;20.25;;;;;;;4.50;80.43;95485.38;4173765;28;20415;-70
2020/12/17 00:46:32;;;;;;;39.75;21.13;;;;;;;4.57;80.45;95485.78;4175146;28;20140;-69
2020/12/17 00:48:34;;;;;;;36.65;21.38;;;;;;;4.64;80.46;95491.38;4184892;28;20492;-68
2020/12/17 00:50:35;;;;;;;35.90;20.83;;;;;;;4.67;80.62;95492.03;4173655;28;20394;-70
2020/12/17 00:52:37;;;;;;;36.15;20.98;;;;;;;4.65;80.20;95491.28;4188136;28;20075;-69
2020/12/17 00:54:39;;;;;;;39.28;22.20;;;;;;;4.54;80.44;95495.53;4170219;28;20076;-69
2020/12/17 00:56:47;;;;;;;39.83;21.23;;;;;;;4.47;81.05;95495.97;4157620;28;20061;-67
2020/12/17 00:58:48;;;;;;;39.22;21.10;;;;;;;4.38;81.12;95495.72;4179368;28;20140;-69
2020/12/17 01:00:49;;;;;;;40.25;21.48;;;;;;;4.24;81.83;95492.28;4175775;28;20389;-69
2020/12/17 01:02:50;;;;;;;37.38;21.55;;;;;;;4.27;81.41;95491.25;4175121;28;20057;-68
2020/12/17 01:04:52;;;;;;;39.55;21.77;;;;;;;4.24;81.68;95488.88;4182476;28;20044;-68
2020/12/17 01:06:54;;;;;;;41.55;22.48;;;;;;;4.13;82.41;95492.16;4190419;28;20076;-69
2020/12/17 01:08:55;;;;;;;42.17;22.20;;;;;;;4.21;82.23;95486.47;4194343;28;20052;-69
2020/12/17 01:10:57;;;;;;;42.85;22.13;;;;;;;4.37;81.79;95492.31;4193195;28;20048;-69
2020/12/17 01:12:58;;;;;;;41.28;22.63;;;;;;;4.50;81.67;95487.97;4175679;28;20471;-70
2020/12/17 01:15:00;;;;;;;44.85;22.15;;;;;;;4.66;80.52;95485.16;4175468;28;20060;-69
2020/12/17 01:17:02;;;;;;;41.83;21.05;;;;;;;4.76;79.94;95485.38;4176624;28;20208;-69
2020/12/17 01:19:03;;;;;;;37.10;20.60;;;;;;;4.84;79.76;95482.22;4174430;28;20051;-69
2020/12/17 01:21:04;;;;;;;41.88;23.00;;;;;;;4.92;79.82;95485.97;4176194;28;20068;-69
2020/12/17 01:23:06;;;;;;;36.40;20.80;;;;;;;4.98;78.52;95478.72;4175803;28;20114;-67
2020/12/17 01:25:07;;;;;;;33.92;20.30;;;;;;;5.07;78.91;95488.44;4159852;28;20056;-68
2020/12/17 01:27:09;;;;;;;35.80;22.05;;;;;;;5.15;77.98;95491.34;4173178;28;20417;-77
2020/12/17 01:29:10;;;;;;;37.88;21.45;;;;;;;5.16;78.51;95487.81;4189424;28;20062;-77
2020/12/17 01:31:13;;;;;;;36.97;21.58;;;;;;;5.20;78.16;95488.44;4193206;28;20574;-78
2020/12/17 01:33:15;;;;;;;35.17;21.07;;;;;;;5.25;78.02;95484.59;4167134;28;20120;-76
2020/12/17 01:35:16;;;;;;;38.47;22.70;;;;;;;5.28;77.88;95481.75;4189390;28;20286;-77
2020/12/17 01:37:17;;;;;;;39.85;21.25;;;;;;;5.31;77.72;95493.69;4189353;28;20128;-76
2020/12/17 01:39:19;;;;;;;41.15;23.58;;;;;;;5.28;77.79;95475.75;4194016;28;20135;-78
2020/12/17 01:41:20;;;;;;;42.72;21.85;;;;;;;5.27;77.69;95477.53;4193818;28;20071;-75
2020/12/17 01:43:21;;;;;;;40.58;22.30;;;;;;;5.28;77.73;95467.94;4191484;28;20058;-78
2020/12/17 01:45:23;;;;;;;39.03;21.65;;;;;;;5.32;78.21;95472.00;4165196;28;20045;-77
2020/12/17 01:47:34;;;;;;;37.47;21.80;;;;;;;5.33;78.22;95471.91;4192971;28;20548;-78
2020/12/17 01:49:36;;;;;;;42.80;23.00;;;;;;;5.36;77.95;95468.25;4192502;28;20052;-77
2020/12/17 01:51:37;;;;;;;37.70;21.30;;;;;;;5.39;78.13;95475.81;4176330;28;20503;-77
2020/12/17 01:53:40;;;;;;;42.00;22.67;;;;;;;5.38;77.90;95463.78;4171178;28;20124;-78
2020/12/17 01:55:41;;;;;;;44.13;22.10;;;;;;;5.30;77.40;95469.50;4160158;28;20073;-76
2020/12/17 01:57:44;;;;;;;42.47;22.63;;;;;;;5.24;77.81;95464.72;4191777;28;20106;-78
2020/12/17 01:59:49;;;;;;;41.95;22.10;;;;;;;5.27;78.37;95468.88;4175285;28;20060;-77
2020/12/17 02:01:53;;;;;;;43.70;22.15;;;;;;;5.27;78.12;95464.53;4177602;28;20092;-77
2020/12/17 02:03:55;;;;;;;37.40;20.58;;;;;;;5.29;78.48;95469.59;4190694;28;20355;-80
2020/12/17 02:05:57;;;;;;;43.42;22.02;;;;;;;5.36;78.40;95467.44;4200696;28;20052;-81
2020/12/17 02:08:00;;;;;;;44.25;21.67;;;;;;;5.37;77.95;95462.09;4199734;28;20040;-79
2020/12/17 02:10:02;;;;;;;46.25;22.83;;;;;;;5.31;78.02;95458.19;4194722;28;20040;-77
2020/12/17 02:12:03;;;;;;;44.97;22.75;;;;;;;5.22;78.41;95461.41;4168382;28;20464;-78
2020/12/17 02:14:04;;;;;;;45.17;22.40;;;;;;;5.13;79.00;95472.44;4185585;28;20052;-82
2020/12/17 02:16:07;;;;;;;41.95;22.38;;;;;;;5.14;78.46;95461.09;4160451;28;20053;-82
2020/12/17 02:18:08;;;;;;;40.45;21.45;;;;;;;5.18;78.88;95461.72;4175236;28;20074;-80
2020/12/17 02:20:11;;;;;;;44.28;22.75;;;;;;;5.15;78.93;95467.97;4194092;28;20042;-82
2020/12/17 02:22:12;;;;;;;42.78;21.90;;;;;;;5.15;78.47;95460.19;4194711;28;20052;-83
2020/12/17 02:24:18;;;;;;;45.45;23.10;;;;;;;5.09;79.03;95465.81;4176243;28;20045;-77
2020/12/17 02:26:19;;;;;;;46.67;22.20;;;;;;;5.09;78.93;95465.81;4195314;28;20418;-80
2020/12/17 02:28:21;;;;;;;45.40;22.50;;;;;;;5.17;79.02;95458.31;4193679;28;20399;-81
2020/12/17 02:30:22;;;;;;;44.90;22.17;;;;;;;5.21;79.26;95456.34;4195825;28;20615;-79
2020/12/17 02:32:24;;;;;;;44.28;21.83;;;;;;;5.27;78.69;95459.34;4175115;28;20047;-76
2020/12/17 02:34:25;;;;;;;46.38;23.35;;;;;;;5.30;78.01;95445.28;4189227;28;20427;-80
2020/12/17 02:36:26;;;;;;;46.58;23.15;;;;;;;5.32;78.41;95448.63;4191431;28;20061;-78
2020/12/17 02:38:28;;;;;;;44.70;24.08;;;;;;;5.37;78.10;95454.31;4180395;28;20052;-79
2020/12/17 02:40:29;;;;;;;46.50;24.00;;;;;;;5.33;78.20;95453.72;4193145;28;20140;-79
2020/12/17 02:42:30;;;;;;;43.75;22.00;;;;;;;5.30;78.28;95443.50;4175838;28;20172;-78
2020/12/17 02:44:32;;;;;;;43.40;23.25;;;;;;;5.30;78.28;95451.31;4189036;28;20071;-71
2020/12/17 02:46:33;;;;;;;48.35;24.00;;;;;;;5.35;78.64;95450.97;4193393;28;20053;-72
2020/12/17 02:48:34;;;;;;;49.53;24.52;;;;;;;5.34;78.12;95444.97;4195045;28;20448;-71
2020/12/17 02:50:36;;;;;;;46.30;22.75;;;;;;;5.34;78.74;95451.94;4176556;28;20049;-71
2020/12/17 02:52:37;;;;;;;48.30;23.27;;;;;;;5.38;78.29;95450.78;4192809;28;20062;-71
2020/12/17 02:54:38;;;;;;;45.70;23.90;;;;;;;5.24;78.72;95448.31;4181472;28;20467;-69
2020/12/17 02:56:39;;;;;;;46.63;24.08;;;;;;;5.19;79.32;95450.41;4202073;28;20158;-70
2020/12/17 02:58:41;;;;;;;50.33;24.38;;;;;;;5.17;79.17;95460.91;4187131;28;20406;-69
2020/12/17 03:00:43;;;;;;;45.25;22.65;;;;;;;5.21;79.27;95458.94;4181942;28;20124;-67
2020/12/17 03:02:44;;;;;;;44.25;22.13;;;;;;;5.16;79.09;95450.63;4192885;28;20079;-68
2020/12/17 03:04:45;;;;;;;55.65;24.27;;;;;;;5.09;79.27;95464.03;4192871;28;20080;-69
2020/12/17 03:06:46;;;;;;;51.40;23.85;;;;;;;4.93;79.98;95459.09;4192859;28;20102;-69
2020/12/17 03:08:48;;;;;;;54.15;25.05;;;;;;;4.69;81.13;95458.19;4175966;28;20128;-77
2020/12/17 03:10:50;;;;;;;54.70;25.45;;;;;;;4.68;81.40;95465.13;4174817;28;20048;-77
2020/12/17 03:12:52;;;;;;;58.63;25.10;;;;;;;4.76;81.42;95463.78;4192862;28;20462;-78
2020/12/17 03:14:53;;;;;;;61.65;24.83;;;;;;;4.82;81.43;95458.16;4191194;28;20472;-76
2020/12/17 03:16:55;;;;;;;51.80;24.25;;;;;;;4.91;80.68;95460.94;4191838;28;20052;-77
2020/12/17 03:18:56;;;;;;;54.42;24.13;;;;;;;4.93;80.80;95466.06;4192890;28;20482;-80
2020/12/17 03:20:57;;;;;;;53.05;24.83;;;;;;;4.96;80.38;95454.63;4193249;28;20047;-78
2020/12/17 03:22:59;;;;;;;47.47;23.92;;;;;;;5.03;80.40;95458.44;4189851;28;20052;-77
2020/12/17 03:25:01;;;;;;;50.00;24.25;;;;;;;5.08;80.09;95464.16;4194771;28;20055;-77
2020/12/17 03:27:02;;;;;;;47.45;23.63;;;;;;;5.19;79.72;95466.00;4190796;28;20569;-76
2020/12/17 03:29:03;;;;;;;51.30;22.23;;;;;;;5.26;79.78;95470.66;4195554;28;20044;-77
2020/12/17 03:31:05;;;;;;;47.17;23.67;;;;;;;5.32;79.15;95472.00;4192300;28;20163;-78
2020/12/17 03:33:06;;;;;;;50.80;23.50;;;;;;;5.37;79.14;95474.25;4178060;28;20049;-78
2020/12/17 03:35:07;;;;;;;47.55;22.58;;;;;;;5.37;78.71;95475.09;4192474;28;20070;-77
2020/12/17 03:37:09;;;;;;;45.42;24.30;;;;;;;5.41;78.83;95470.50;4176634;28;20048;-77
2020/12/17 03:39:10;;;;;;;50.72;24.08;;;;;;;5.40;78.83;95472.28;4190299;28;20530;-77
2020/12/17 03:41:12;;;;;;;48.13;23.58;;;;;;;5.42;78.48;95477.34;4191581;28;20412;-77
2020/12/17 03:43:13;;;;;;;47.63;22.92;;;;;;;5.44;78.13;95475.47;4173666;28;20049;-76
2020/12/17 03:45:14;;;;;;;47.33;23.92;;;;;;;5.42;78.14;95482.56;4192423;28;20446;-69
2020/12/17 03:47:15;;;;;;;52.15;24.08;;;;;;;5.44;78.69;95481.53;4173487;28;20059;-69
2020/12/17 03:49:17;;;;;;;57.45;23.95;;;;;;;5.46;78.14;95481.41;4173978;28;20055;-69
2020/12/17 03:51:18;;;;;;;51.90;23.73;;;;;;;5.47;77.91;95477.88;4191732;28;20498;-69
2020/12/17 03:53:19;;;;;;;54.35;24.25;;;;;;;5.45;78.18;95477.16;4191375;28;20134;-68
2020/12/17 03:55:20;;;;;;;93.10;25.58;;;;;;;5.20;79.49;95478.03;4174565;28;20053;-70
2020/12/17 03:57:22;;;;;;;55.28;25.10;;;;;;;4.89;80.73;95480.16;4190996;28;20477;-69
2020/12/17 03:59:23;;;;;;;66.40;26.05;;;;;;;4.67;81.51;95480.81;4191220;28;20469;-69
2020/12/17 04:01:24;;;;;;;63.20;26.70;;;;;;;4.32;83.21;95481.38;4172974;28;20428;-69
2020/12/17 04:03:25;;;;;;;68.60;26.23;;;;;;;4.25;83.53;95474.94;4191372;28;20210;-69
2020/12/17 04:05:27;;;;;;;64.88;28.38;;;;;;;4.32;84.30;95481.38;4192670;28;20522;-68
2020/12/17 04:07:28;;;;;;;62.22;27.85;;;;;;;4.35;83.18;95482.97;4174152;28;20072;-69
2020/12/17 04:09:29;;;;;;;68.20;26.98;;;;;;;4.14;84.31;95482.63;4190947;28;20055;-70
2020/12/17 04:11:30;;;;;;;88.70;28.38;;;;;;;4.18;84.21;95474.53;4190933;28;20487;-69
2020/12/17 04:13:32;;;;;;;69.72;28.10;;;;;;;4.37;83.86;95473.31;4191836;28;20110;-69
2020/12/17 04:15:34;;;;;;;66.47;27.65;;;;;;;4.48;82.94;95469.06;4191234;28;20487;-70
2020/12/17 04:17:35;;;;;;;65.70;25.30;;;;;;;4.46;82.92;95470.94;4191379;28;20518;-69
2020/12/17 04:19:36;;;;;;;75.15;29.52;;;;;;;4.22;83.71;95470.81;4175673;28;20057;-68
2020/12/17 04:21:38;;;;;;;95.13;31.33;;;;;;;3.93;84.94;95474.47;4193422;28;20060;-68
2020/12/17 04:23:39;;;;;;;93.28;33.03;;;;;;;3.89;85.55;95473.81;4193955;28;20049;-69
2020/12/17 04:25:42;;;;;;;97.75;33.05;;;;;;;4.01;85.21;95477.41;4192959;28;20467;-68
2020/12/17 04:27:43;;;;;;;75.22;28.80;;;;;;;4.10;84.91;95467.25;4190721;28;20060;-69
2020/12/17 04:29:48;;;;;;;84.10;29.02;;;;;;;4.23;84.25;95472.44;4190680;28;20151;-69
2020/12/17 04:31:50;;;;;;;78.28;29.33;;;;;;;4.37;84.35;95468.13;4193699;28;20566;-69
2020/12/17 04:33:52;;;;;;;73.78;30.38;;;;;;;4.50;84.27;95472.38;4192467;28;20072;-68
2020/12/17 04:35:53;;;;;;;77.32;28.00;;;;;;;4.59;83.49;95470.94;4189892;28;20400;-70
2020/12/17 04:37:55;;;;;;;73.15;28.08;;;;;;;4.71;82.70;95462.31;4173113;28;20057;-77
2020/12/17 04:39:56;;;;;;;85.30;28.90;;;;;;;4.80;82.11;95475.63;4174103;28;20056;-78
2020/12/17 04:42:02;;;;;;;79.28;30.35;;;;;;;4.87;81.50;95472.47;4192780;28;20078;-77
2020/12/17 04:44:03;;;;;;;80.70;33.40;;;;;;;4.97;81.52;95474.44;4196495;28;20444;-78
2020/12/17 04:46:04;;;;;;;103.55;35.45;;;;;;;5.04;81.51;95478.28;4174004;28;20128;-77
2020/12/17 04:48:07;;;;;;;83.53;34.88;;;;;;;5.10;81.26;95473.50;4192166;28;20397;-77
2020/12/17 04:50:11;;;;;;;79.70;31.13;;;;;;;5.15;81.53;95480.16;4197787;28;20488;-78
2020/12/17 04:52:13;;;;;;;73.47;28.23;;;;;;;5.08;81.22;95471.94;4174204;28;20567;-76
2020/12/17 04:54:15;;;;;;;70.57;29.05;;;;;;;5.12;81.54;95470.81;4190994;28;20053;-77
2020/12/17 04:56:18;;;;;;;89.72;37.42;;;;;;;5.18;80.91;95474.72;4178792;28;20061;-78
2020/12/17 04:58:20;;;;;;;71.90;28.92;;;;;;;5.19;81.06;95479.81;4156976;28;20443;-77
2020/12/17 05:00:22;;;;;;;75.88;29.90;;;;;;;4.99;81.01;95482.94;4189922;28;20103;-79
2020/12/17 05:02:23;;;;;;;76.68;29.35;;;;;;;4.80;82.03;95481.63;4174778;28;20056;-76
2020/12/17 05:04:27;;;;;;;77.45;27.10;;;;;;;4.43;83.92;95478.94;4157555;28;20061;-76
2020/12/17 05:06:30;;;;;;;101.65;29.48;;;;;;;4.15;84.46;95486.84;4185969;28;20053;-79
2020/12/17 05:08:31;;;;;;;94.07;29.67;;;;;;;4.01;85.64;95485.19;4192156;28;20434;-76
2020/12/17 05:10:32;;;;;;;91.07;29.73;;;;;;;4.15;85.49;95482.53;4190827;28;20614;-77
2020/12/17 05:12:34;;;;;;;95.75;32.13;;;;;;;4.19;85.68;95480.53;4196581;28;20355;-77
2020/12/17 05:14:36;;;;;;;103.72;32.67;;;;;;;4.26;85.30;95480.03;4179025;28;20080;-77
2020/12/17 05:16:37;;;;;;;80.35;28.40;;;;;;;4.38;84.87;95469.78;4191510;28;20090;-76
2020/12/17 05:18:38;;;;;;;93.15;31.80;;;;;;;4.50;85.12;95466.38;4191989;28;20056;-76
2020/12/17 05:20:40;;;;;;;79.13;29.50;;;;;;;4.66;84.07;95479.97;4191786;28;20045;-77
2020/12/17 05:22:43;;;;;;;72.15;28.27;;;;;;;4.75;83.40;95478.50;4191558;28;20499;-78
2020/12/17 05:24:47;;;;;;;79.47;29.00;;;;;;;4.67;84.02;95475.63;4173817;28;20397;-78
2020/12/17 05:26:50;;;;;;;71.53;29.58;;;;;;;4.76;83.28;95480.19;4190864;28;20054;-79
2020/12/17 05:28:53;;;;;;;72.65;27.52;;;;;;;4.77;83.02;95476.63;4186941;28;20218;-79
2020/12/17 05:30:54;;;;;;;68.57;26.95;;;;;;;4.77;83.22;95481.81;4187872;28;20131;-79
2020/12/17 05:32:57;;;;;;;79.80;27.30;;;;;;;4.73;83.02;95488.16;4207209;28;20562;-78
2020/12/17 05:35:02;;;;;;;77.57;28.23;;;;;;;4.81;83.56;95496.25;4179451;28;20045;-75
2020/12/17 05:37:06;;;;;;;76.65;27.27;;;;;;;4.90;82.81;95482.66;4171870;28;20413;-77
2020/12/17 05:39:14;;;;;;;71.22;28.35;;;;;;;5.01;82.72;95483.69;4188243;28;20422;-78
2020/12/17 05:41:17;;;;;;;82.00;28.65;;;;;;;5.10;82.26;95483.06;4185817;28;20048;-78
2020/12/17 05:43:21;;;;;;;85.45;30.35;;;;;;;5.15;81.91;95480.97;4184759;28;20067;-78
2020/12/17 05:45:23;;;;;;;;;;;;;;;5.23;81.10;95489.06;4174240;28;20480;-80
2020/12/17 05:47:24;;;;;;;76.13;27.33;;;;;;;5.22;81.60;95489.97;4185978;28;20402;-78
2020/12/17 05:49:27;;;;;;;101.93;46.78;;;;;;;5.15;81.77;95496.56;4191079;28;20052;-78
2020/12/17 05:51:29;;;;;;;87.93;32.47;;;;;;;5.01;81.97;95494.06;4188101;28;20048;-77
2020/12/17 05:53:31;;;;;;;78.72;33.20;;;;;;;4.96;82.96;95502.19;4159947;28;20096;-79
2020/12/17 05:55:33;;;;;;;74.67;30.17;;;;;;;4.96;82.30;95498.75;4187593;28;20093;-79
2020/12/17 05:57:34;;;;;;;89.95;33.90;;;;;;;4.95;82.85;95504.88;4175860;28;20496;-76
2020/12/17 05:59:35;;;;;;;77.93;27.98;;;;;;;4.87;82.73;95508.81;4175942;28;20063;-77
2020/12/17 06:01:37;;;;;;;81.85;27.83;;;;;;;4.85;83.25;95505.50;4180300;28;20541;-78
2020/12/17 06:03:40;;;;;;;73.20;28.25;;;;;;;4.90;82.98;95503.44;4194917;28;20044;-78
2020/12/17 06:05:43;;;;;;;76.70;29.10;;;;;;;4.92;82.86;95514.53;4190576;28;20052;-79
2020/12/17 06:07:49;;;;;;;75.68;29.65;;;;;;;5.01;83.09;95510.50;4191358;28;20052;-77
2020/12/17 06:10:04;;;;;;;68.03;28.55;;;;;;;5.09;82.50;95513.38;4193819;28;20501;-76
2020/12/17 06:12:05;;;;;;;73.25;29.23;;;;;;;5.19;81.94;95513.59;4193319;28;20361;-79
2020/12/17 06:14:06;;;;;;;79.80;30.92;;;;;;;5.25;81.30;95515.75;4174224;28;20133;-77
2020/12/17 06:16:09;;;;;;;75.95;28.38;;;;;;;5.21;81.33;95516.91;4191978;28;20062;-78
2020/12/17 06:18:12;;;;;;;81.90;30.83;;;;;;;5.20;81.14;95514.41;4172309;28;20055;-80
2020/12/17 06:20:14;;;;;;;77.40;29.30;;;;;;;5.23;81.66;95512.44;4175129;28;20045;-69
2020/12/17 06:22:17;;;;;;;71.47;29.52;;;;;;;5.29;81.04;95509.41;4193415;28;20055;-73
2020/12/17 06:24:19;;;;;;;68.15;28.73;;;;;;;5.36;81.16;95511.59;4193542;28;20045;-70
2020/12/17 06:26:22;;;;;;;73.90;29.65;;;;;;;5.42;80.55;95511.13;4175612;28;20120;-70
2020/12/17 06:28:47;;;;;;;68.13;27.23;;;;;;;5.48;80.72;95502.91;4192280;28;20074;-71
2020/12/17 06:30:49;;;;;;;72.68;28.75;;;;;;;5.49;80.22;95502.81;4175050;28;20037;-70
2020/12/17 06:33:03;;;;;;;73.55;28.88;;;;;;;5.51;79.70;95507.91;4175598;28;20053;-70
2020/12/17 06:35:08;;;;;;;68.55;27.30;;;;;;;5.48;80.45;95506.34;4173562;28;20152;-69
2020/12/17 06:37:12;;;;;;;64.82;27.25;;;;;;;5.42;79.68;95514.59;4191252;28;20055;-71
2020/12/17 06:39:14;;;;;;;78.68;29.30;;;;;;;5.42;81.32;95518.94;4181393;28;20051;-69
2020/12/17 06:41:17;;;;;;;74.45;28.75;;;;;;;5.41;81.12;95504.28;4157018;28;20184;-69
2020/12/17 06:43:38;;;;;;;69.80;28.08;;;;;;;5.44;80.66;95517.06;4189842;28;20051;-71
2020/12/17 06:45:39;;;;;;;67.60;28.90;;;;;;;5.48;80.73;95515.91;4189557;28;20040;-69
2020/12/17 06:47:41;;;;;;;64.47;28.13;;;;;;;5.56;81.10;95517.97;4189731;28;20044;-78
2020/12/17 06:49:42;;;;;;;67.78;27.38;;;;;;;5.61;80.62;95513.28;4192667;28;20054;-69
2020/12/17 06:51:44;;;;;;;77.20;35.83;;;;;;;5.63;81.07;95514.81;4195569;28;20040;-69
2020/12/17 06:53:45;;;;;;;93.85;42.88;;;;;;;5.64;80.75;95511.31;4192579;28;20050;-69
2020/12/17 06:55:51;;;;;;;82.45;33.83;;;;;;;5.59;80.56;95508.19;4175667;28;20055;-71
2020/12/17 06:57:52;;;;;;;67.65;30.23;;;;;;;5.59;80.38;95517.75;4189448;28;20044;-69
2020/12/17 07:00:08;;;;;;;73.10;29.20;;;;;;;5.65;80.08;95512.13;4192402;28;20053;-70
2020/12/17 07:02:16;;;;;;;67.00;27.40;;;;;;;5.56;80.20;95513.59;4179567;28;20132;-69
2020/12/17 07:04:37;;;;;;;68.63;28.73;;;;;;;5.56;80.29;95521.41;4164195;28;20124;-70
2020/12/17 07:06:38;;;;;;;67.65;26.30;;;;;;;5.56;80.26;95517.97;4208466;28;20068;-69
2020/12/17 07:08:40;;;;;;;68.43;27.98;;;;;;;5.57;80.26;95528.28;4193443;28;20617;-70
2020/12/17 07:10:41;;;;;;;67.63;26.98;;;;;;;5.61;80.09;95527.09;4190658;28;20059;-71
2020/12/17 07:12:42;;;;;;;62.88;26.60;;;;;;;5.64;80.13;95526.91;4172573;28;20087;-69
2020/12/17 07:14:44;;;;;;;64.90;26.60;;;;;;;5.65;80.04;95528.53;4190152;28;20063;-72
2020/12/17 07:16:49;;;;;;;72.45;29.38;;;;;;;5.68;79.72;95530.94;4192737;28;20118;-72
2020/12/17 07:18:52;;;;;;;68.35;27.42;;;;;;;5.70;80.04;95529.06;4191686;28;20103;-68
2020/12/17 07:21:02;;;;;;;61.72;25.88;;;;;;;5.73;79.46;95523.63;4193209;28;20055;-71
2020/12/17 07:23:04;;;;;;;64.38;28.67;;;;;;;5.66;79.98;95522.41;4174509;28;20558;-70
2020/12/17 07:25:05;;;;;;;62.80;26.48;;;;;;;5.69;79.72;95522.19;4192635;28;20513;-71
2020/12/17 07:27:09;;;;;;;63.55;27.13;;;;;;;5.77;79.97;95523.44;4173226;28;20400;-71
2020/12/17 07:29:10;;;;;;;66.25;27.13;;;;;;;5.80;79.91;95520.59;4172872;28;20060;-70
2020/12/17 07:31:22;;;;;;;62.42;27.90;;;;;;;5.84;79.08;95529.84;4192879;28;20136;-72
2020/12/17 07:33:50;;;;;;;64.95;29.02;;;;;;;5.87;79.35;95532.22;4157879;28;20045;-70
2020/12/17 07:35:51;;;;;;;61.72;25.80;;;;;;;5.90;79.02;95526.81;4188671;28;20052;-71
2020/12/17 07:37:57;;;;;;;56.45;24.88;;;;;;;5.89;78.86;95517.34;4192745;28;20196;-70
2020/12/17 07:40:03;;;;;;;58.42;25.35;;;;;;;5.87;78.48;95527.00;4160976;28;20468;-70
2020/12/17 07:42:04;;;;;;;55.50;25.33;;;;;;;5.85;78.69;95528.91;4181650;28;20463;-70
2020/12/17 07:44:06;;;;;;;57.03;26.60;;;;;;;5.84;78.98;95529.84;4188803;28;20443;-70
2020/12/17 07:46:08;;;;;;;58.17;25.85;;;;;;;5.84;78.57;95530.66;4200847;28;20052;-71
2020/12/17 07:48:35;;;;;;;61.05;27.20;;;;;;;5.88;78.86;95528.69;4173255;28;20151;-70
2020/12/17 07:50:37;;;;;;;62.38;25.80;;;;;;;5.93;78.69;95535.22;4185828;28;20129;-70
2020/12/17 07:52:41;;;;;;;61.30;27.33;;;;;;;5.92;78.40;95537.94;4170976;28;20536;-69
2020/12/17 07:54:44;;;;;;;61.50;28.23;;;;;;;5.98;78.33;95537.53;4177141;28;20045;-70
2020/12/17 07:56:49;;;;;;;58.78;28.00;;;;;;;5.98;78.34;95537.53;4170087;28;20055;-71
2020/12/17 07:58:52;;;;;;;66.88;27.45;;;;;;;6.02;78.56;95540.72;4180651;28;20501;-70
2020/12/17 08:00:57;;;;;;;61.55;28.70;;;;;;;6.07;77.91;95547.25;4200001;28;20050;-73
2020/12/17 08:02:58;;;;;;;65.80;29.02;;;;;;;6.09;78.27;95547.16;4178995;28;20482;-71
2020/12/17 08:04:59;;;;;;;69.47;28.67;;;;;;;6.06;78.02;95543.00;4191456;28;20068;-70
2020/12/17 08:07:08;;;;;;;67.65;28.70;;;;;;;6.09;78.53;95547.16;4195526;28;20074;-72
2020/12/17 08:09:10;;;;;;;66.65;28.48;;;;;;;6.10;78.26;95549.63;4208036;28;20494;-72
2020/12/17 08:11:18;;;;;;;72.88;29.55;;;;;;;6.16;77.98;95545.78;4187072;28;20075;-71
2020/12/17 08:13:20;;;;;;;74.00;31.35;;;;;;;6.10;77.73;95546.22;4187349;28;20502;-72
2020/12/17 08:15:21;;;;;;;70.68;32.60;;;;;;;6.04;78.30;95550.06;4191132;28;20048;-72
2020/12/17 08:17:23;;;;;;;68.40;31.50;;;;;;;6.04;78.30;95547.47;4168830;28;20521;-72
2020/12/17 08:19:24;;;;;;;75.00;32.53;;;;;;;5.98;78.26;95552.28;4167455;28;20045;-73
2020/12/17 08:21:27;;;;;;;67.88;30.38;;;;;;;6.00;78.33;95555.59;4185452;28;20070;-71
2020/12/17 08:23:29;;;;;;;73.75;32.75;;;;;;;6.05;78.65;95553.53;4187070;28;20526;-73
2020/12/17 08:25:30;;;;;;;65.97;31.23;;;;;;;6.12;77.94;95555.56;4143655;28;20054;-71
2020/12/17 08:27:32;;;;;;;72.32;30.58;;;;;;;6.18;77.92;95554.28;4170022;28;20057;-79
2020/12/17 08:29:33;;;;;;;89.68;32.58;;;;;;;6.22;78.17;95555.72;4182412;28;20128;-78
2020/12/17 08:31:35;;;;;;;68.57;32.20;;;;;;;6.15;78.00;95552.75;4202159;28;20040;-78
2020/12/17 08:33:41;;;;;;;75.03;34.60;;;;;;;6.10;77.72;95551.41;4199641;28;20047;-80
2020/12/17 08:35:42;;;;;;;69.78;31.60;;;;;;;6.12;78.47;95560.75;4161010;28;20431;-79
2020/12/17 08:37:43;;;;;;;82.32;36.50;;;;;;;6.15;77.96;95560.56;4166725;28;20045;-78
2020/12/17 08:39:58;;;;;;;69.60;34.25;;;;;;;6.19;77.70;95555.13;4182336;28;20057;-79
2020/12/17 08:42:00;;;;;;;86.05;37.55;;;;;;;6.07;77.63;95562.88;4172210;28;20443;-78
2020/12/17 08:44:04;;;;;;;66.90;32.47;;;;;;;5.50;79.46;95566.00;4188368;28;20464;-84
2020/12/17 08:46:05;;;;;;;;;;;;;;;5.29;80.78;95558.78;4201116;28;20381;-80
2020/12/17 08:48:15;;;;;;;78.25;35.80;;;;;;;5.42;81.02;95558.75;4191559;28;19974;-80
2020/12/17 08:50:18;;;;;;;77.40;37.33;;;;;;;5.60;80.47;95561.84;4174601;28;20045;-83
2020/12/17 08:52:30;;;;;;;73.47;37.80;;;;;;;5.73;80.15;95554.84;4175033;28;20049;-80
2020/12/17 08:54:34;;;;;;;85.78;40.03;;;;;;;5.85;79.68;95550.56;4190123;28;20062;-82
2020/12/17 08:56:36;;;;;;;81.20;39.92;;;;;;;5.98;79.16;95552.28;4192840;28;20432;-78
2020/12/17 08:58:48;;;;;;;84.05;40.53;;;;;;;6.10;79.12;95543.59;4176140;28;20045;-78
2020/12/17 09:00:49;;;;;;;77.55;38.53;;;;;;;6.20;78.30;95535.97;4190039;28;20131;-78
2020/12/17 09:02:57;;;;;;;83.18;38.90;;;;;;;6.25;78.08;95544.28;4188165;28;20135;-81
2020/12/17 09:05:00;;;;;;;71.93;34.83;;;;;;;6.35;78.07;95540.06;4192867;28;20063;-80
2020/12/17 09:07:02;;;;;;;73.82;36.58;;;;;;;6.36;78.21;95532.13;4191826;28;20048;-80
2020/12/17 09:09:18;;;;;;;73.43;36.72;;;;;;;6.38;77.51;95539.00;4193692;28;20080;-79
2020/12/17 09:11:37;;;;;;;78.25;36.03;;;;;;;6.31;77.41;95534.25;4176220;28;20061;-79
2020/12/17 09:13:38;;;;;;;68.10;34.33;;;;;;;6.31;78.06;95530.81;4171081;28;20045;-70
2020/12/17 09:15:39;;;;;;;76.18;34.28;;;;;;;6.31;77.86;95538.63;4160722;28;20124;-71
2020/12/17 09:17:41;;;;;;;84.30;41.13;;;;;;;6.20;78.12;95528.19;4190964;28;20056;-71
2020/12/17 09:19:43;;;;;;;86.70;41.47;;;;;;;6.20;78.21;95528.19;4192969;28;20060;-71
2020/12/17 09:21:57;;;;;;;84.68;41.08;;;;;;;6.22;77.76;95528.91;4172182;28;20144;-70
2020/12/17 09:24:00;;;;;;;84.55;40.55;;;;;;;6.30;77.97;95530.00;4183966;28;20055;-70
2020/12/17 09:26:14;;;;;;;81.17;40.57;;;;;;;6.41;77.73;95525.75;4194155;28;20084;-71
2020/12/17 09:28:22;;;;;;;81.60;40.67;;;;;;;6.47;77.52;95525.28;4193318;28;20533;-71
2020/12/17 09:30:31;;;;;;;76.55;38.30;;;;;;;6.49;77.65;95528.63;4175202;28;20479;-69
2020/12/17 09:32:35;;;;;;;71.85;36.40;;;;;;;6.53;78.24;95525.66;4182467;28;20059;-70
2020/12/17 09:34:37;;;;;;;81.13;36.20;;;;;;;6.63;78.71;95518.03;4176710;28;20068;-71